createdAt,value
2017-09-01T00:00:24.693Z,1017.15
2017-09-01T00:01:24.728Z,1017.14
2017-09-01T00:02:24.766Z,1017.07
2017-09-01T00:03:27.036Z,1017.14
2017-09-01T00:04:24.810Z,1017.06
2017-09-01T00:05:24.861Z,1017.09
2017-09-01T00:06:24.874Z,1017.08
2017-09-01T00:07:24.940Z,1017.07
2017-09-01T00:08:24.950Z,1017.05
2017-09-01T00:09:24.977Z,1017.04
2017-09-01T00:10:25.018Z,1017.04
2017-09-01T00:11:25.067Z,1017.01
2017-09-01T00:12:25.095Z,1016.98
2017-09-01T00:13:25.131Z,1016.99
2017-09-01T00:14:25.164Z,1016.99
2017-09-01T00:15:25.215Z,1016.96
2017-09-01T00:16:25.251Z,1016.97
2017-09-01T00:17:25.564Z,1016.96
2017-09-01T00:18:25.573Z,1016.96
2017-09-01T00:19:25.926Z,1016.92
2017-09-01T00:20:25.955Z,1017
2017-09-01T00:21:25.988Z,1017
2017-09-01T00:22:26.029Z,1017.02
2017-09-01T00:23:26.058Z,1016.98
2017-09-01T00:24:26.091Z,1016.95
2017-09-01T00:25:26.133Z,1016.95
2017-09-01T00:26:26.160Z,1016.95
2017-09-01T00:27:26.199Z,1017.01
2017-09-01T00:28:26.260Z,1016.99
2017-09-01T00:29:26.271Z,1017.02
2017-09-01T00:30:26.308Z,1017
2017-09-01T00:31:26.680Z,1017.03
2017-09-01T00:32:26.716Z,1017
2017-09-01T00:33:26.749Z,1017.04
2017-09-01T00:34:26.788Z,1017.03
2017-09-01T00:35:26.815Z,1017.02
2017-09-01T00:36:26.852Z,1017.04
2017-09-01T00:37:26.904Z,1017.07
2017-09-01T00:38:26.917Z,1017.12
2017-09-01T00:39:27.021Z,1017.07
2017-09-01T00:40:27.424Z,1017.14
2017-09-01T00:41:27.544Z,1017.1
2017-09-01T00:42:27.856Z,1017.11
2017-09-01T00:43:27.895Z,1017.15
2017-09-01T00:44:28.220Z,1017.12
2017-09-01T00:45:28.521Z,1017.11
2017-09-01T00:46:28.820Z,1017.1
2017-09-01T00:47:28.854Z,1017.11
2017-09-01T00:48:28.888Z,1017.12
2017-09-01T00:49:28.921Z,1017.09
2017-09-01T00:50:28.954Z,1017.11
2017-09-01T00:51:28.988Z,1017.13
2017-09-01T00:52:29.023Z,1017.12
2017-09-01T00:53:29.055Z,1017.13
2017-09-01T00:54:29.097Z,1017.19
2017-09-01T00:55:29.126Z,1017.15
2017-09-01T00:56:29.158Z,1017.16
2017-09-01T00:57:29.593Z,1017.15
2017-09-01T00:58:29.624Z,1017.17
2017-09-01T00:59:29.658Z,1017.21
2017-09-01T01:00:29.692Z,1017.25
2017-09-01T01:01:29.726Z,1017.26
2017-09-01T01:02:29.757Z,1017.29
2017-09-01T01:03:36.054Z,1017.31
2017-09-01T01:04:29.850Z,1017.3
2017-09-01T01:05:29.859Z,1017.36
2017-09-01T01:06:29.893Z,1017.29
2017-09-01T01:07:29.926Z,1017.3
2017-09-01T01:08:29.962Z,1017.31
2017-09-01T01:09:30.306Z,1017.28
2017-09-01T01:10:30.333Z,1017.33
2017-09-01T01:11:30.369Z,1017.39
2017-09-01T01:12:30.406Z,1017.35
2017-09-01T01:13:30.755Z,1017.31
2017-09-01T01:14:31.143Z,1017.33
2017-09-01T01:15:31.153Z,1017.39
2017-09-01T01:16:31.182Z,1017.4
2017-09-01T01:17:31.242Z,1017.39
2017-09-01T01:18:31.272Z,1017.37
2017-09-01T01:19:31.686Z,1017.42
2017-09-01T01:20:31.686Z,1017.4
2017-09-01T01:21:31.698Z,1017.46
2017-09-01T01:22:31.755Z,1017.42
2017-09-01T01:23:31.762Z,1017.42
2017-09-01T01:24:31.797Z,1017.41
2017-09-01T01:25:31.835Z,1017.47
2017-09-01T01:26:31.863Z,1017.47
2017-09-01T01:27:31.898Z,1017.44
2017-09-01T01:28:31.935Z,1017.5
2017-09-01T01:29:31.986Z,1017.48
2017-09-01T01:30:31.999Z,1017.47
2017-09-01T01:31:32.034Z,1017.45
2017-09-01T01:32:32.068Z,1017.46
2017-09-01T01:33:32.366Z,1017.47
2017-09-01T01:34:32.396Z,1017.52
2017-09-01T01:35:32.753Z,1017.51
2017-09-01T01:36:33.139Z,1017.47
2017-09-01T01:37:33.149Z,1017.47
2017-09-01T01:38:33.467Z,1017.48
2017-09-01T01:39:33.528Z,1017.5
2017-09-01T01:40:33.536Z,1017.48
2017-09-01T01:41:33.565Z,1017.44
2017-09-01T01:42:33.953Z,1017.46
2017-09-01T01:43:33.980Z,1017.45
2017-09-01T01:44:34.034Z,1017.47
2017-09-01T01:45:34.047Z,1017.5
2017-09-01T01:46:34.384Z,1017.51
2017-09-01T01:47:34.440Z,1017.51
2017-09-01T01:48:34.471Z,1017.55
2017-09-01T01:49:34.482Z,1017.48
2017-09-01T01:50:34.538Z,1017.5
2017-09-01T01:51:34.547Z,1017.52
2017-09-01T01:52:34.631Z,1017.52
2017-09-01T01:53:34.661Z,1017.53
2017-09-01T01:54:34.697Z,1017.57
2017-09-01T01:55:34.731Z,1017.55
2017-09-01T01:56:35.029Z,1017.49
2017-09-01T01:57:35.080Z,1017.5
2017-09-01T01:58:35.133Z,1017.51
2017-09-01T01:59:35.170Z,1017.46
2017-09-01T02:00:35.178Z,1017.45
2017-09-01T02:01:35.219Z,1017.4
2017-09-01T02:02:35.266Z,1017.39
2017-09-01T02:03:44.980Z,1017.42
2017-09-01T02:04:35.332Z,1017.37
2017-09-01T02:05:35.345Z,1017.4
2017-09-01T02:06:35.379Z,1017.37
2017-09-01T02:07:35.433Z,1017.42
2017-09-01T02:08:35.469Z,1017.41
2017-09-01T02:09:35.523Z,1017.49
2017-09-01T02:10:35.576Z,1017.45
2017-09-01T02:11:35.586Z,1017.5
2017-09-01T02:12:35.932Z,1017.56
2017-09-01T02:13:35.970Z,1017.53
2017-09-01T02:14:36.376Z,1017.48
2017-09-01T02:15:36.418Z,1017.5
2017-09-01T02:16:36.449Z,1017.35
2017-09-01T02:17:36.484Z,1017.41
2017-09-01T02:18:36.876Z,1017.37
2017-09-01T02:19:36.886Z,1017.42
2017-09-01T02:20:36.926Z,1017.36
2017-09-01T02:21:36.971Z,1017.36
2017-09-01T02:22:37.341Z,1017.36
2017-09-01T02:23:37.661Z,1017.32
2017-09-01T02:24:37.707Z,1017.35
2017-09-01T02:25:38.044Z,1017.35
2017-09-01T02:26:38.079Z,1017.38
2017-09-01T02:27:38.136Z,1017.37
2017-09-01T02:28:38.526Z,1017.39
2017-09-01T02:29:38.557Z,1017.37
2017-09-01T02:30:38.586Z,1017.3
2017-09-01T02:31:38.621Z,1017.31
2017-09-01T02:32:38.676Z,1017.29
2017-09-01T02:33:38.687Z,1017.29
2017-09-01T02:34:38.750Z,1017.32
2017-09-01T02:35:39.148Z,1017.32
2017-09-01T02:36:39.178Z,1017.33
2017-09-01T02:37:39.210Z,1017.36
2017-09-01T02:38:39.545Z,1017.33
2017-09-01T02:39:39.570Z,1017.28
2017-09-01T02:40:39.605Z,1017.21
2017-09-01T02:41:39.653Z,1017.21
2017-09-01T02:42:39.689Z,1017.17
2017-09-01T02:43:39.703Z,1017.18
2017-09-01T02:44:39.746Z,1017.08
2017-09-01T02:45:39.776Z,1017.07
2017-09-01T02:46:39.807Z,1017.09
2017-09-01T02:47:39.856Z,1017.07
2017-09-01T02:48:39.891Z,1017.02
2017-09-01T02:49:39.905Z,1016.99
2017-09-01T02:50:39.946Z,1017.03
2017-09-01T02:51:39.987Z,1017
2017-09-01T02:52:40.001Z,1017.05
2017-09-01T02:53:40.050Z,1017
2017-09-01T02:54:40.079Z,1016.99
2017-09-01T02:55:40.108Z,1017.04
2017-09-01T02:56:40.145Z,1017.09
2017-09-01T02:57:40.201Z,1017.14
2017-09-01T02:58:40.209Z,1017.17
2017-09-01T02:59:40.242Z,1017.17
2017-09-01T03:00:40.280Z,1017.16
2017-09-01T03:01:40.309Z,1017.2
2017-09-01T03:02:40.657Z,1017.19
2017-09-01T03:03:40.676Z,1017.19
2017-09-01T03:04:40.706Z,1017.19
2017-09-01T03:05:41.059Z,1017.22
2017-09-01T03:06:41.089Z,1017.17
2017-09-01T03:07:41.451Z,1017.24
2017-09-01T03:08:41.482Z,1017.24
2017-09-01T03:09:41.518Z,1017.29
2017-09-01T03:10:41.549Z,1017.26
2017-09-01T03:11:41.580Z,1017.26
2017-09-01T03:12:41.633Z,1017.31
2017-09-01T03:13:41.652Z,1017.27
2017-09-01T03:14:41.679Z,1017.29
2017-09-01T03:15:41.984Z,1017.28
2017-09-01T03:16:42.019Z,1017.27
2017-09-01T03:17:42.054Z,1017.26
2017-09-01T03:18:42.083Z,1017.27
2017-09-01T03:19:42.118Z,1017.26
2017-09-01T03:20:42.175Z,1017.25
2017-09-01T03:21:42.185Z,1017.24
2017-09-01T03:22:42.216Z,1017.25
2017-09-01T03:23:42.252Z,1017.24
2017-09-01T03:24:42.580Z,1017.27
2017-09-01T03:25:42.610Z,1017.28
2017-09-01T03:26:42.648Z,1017.25
2017-09-01T03:27:42.681Z,1017.25
2017-09-01T03:28:42.710Z,1017.25
2017-09-01T03:29:42.746Z,1017.26
2017-09-01T03:30:43.103Z,1017.32
2017-09-01T03:31:43.179Z,1017.24
2017-09-01T03:32:43.205Z,1017.22
2017-09-01T03:33:43.244Z,1017.25
2017-09-01T03:34:43.610Z,1017.27
2017-09-01T03:35:43.659Z,1017.27
2017-09-01T03:36:44.047Z,1017.24
2017-09-01T03:37:44.059Z,1017.26
2017-09-01T03:38:44.090Z,1017.31
2017-09-01T03:39:44.385Z,1017.27
2017-09-01T03:40:44.420Z,1017.33
2017-09-01T03:41:44.796Z,1017.36
2017-09-01T03:42:44.849Z,1017.32
2017-09-01T03:43:44.861Z,1017.35
2017-09-01T03:44:44.891Z,1017.38
2017-09-01T03:45:44.925Z,1017.34
2017-09-01T03:46:44.959Z,1017.33
2017-09-01T03:47:45.276Z,1017.35
2017-09-01T03:48:45.319Z,1017.3
2017-09-01T03:49:45.353Z,1017.28
2017-09-01T03:50:45.383Z,1017.25
2017-09-01T03:51:45.418Z,1017.26
2017-09-01T03:52:45.474Z,1017.28
2017-09-01T03:53:45.484Z,1017.28
2017-09-01T03:54:45.823Z,1017.36
2017-09-01T03:55:45.549Z,1017.33
2017-09-01T03:56:45.583Z,1017.36
2017-09-01T03:57:45.985Z,1017.38
2017-09-01T03:58:46.260Z,1017.38
2017-09-01T03:59:46.300Z,1017.36
2017-09-01T04:00:46.643Z,1017.35
2017-09-01T04:01:46.669Z,1017.39
2017-09-01T04:02:46.700Z,1017.39
2017-09-01T04:03:47.044Z,1017.38
2017-09-01T04:04:47.069Z,1017.34
2017-09-01T04:05:47.099Z,1017.41
2017-09-01T04:06:47.140Z,1017.38
2017-09-01T04:07:47.202Z,1017.42
2017-09-01T04:08:47.199Z,1017.41
2017-09-01T04:09:47.231Z,1017.41
2017-09-01T04:10:47.267Z,1017.4
2017-09-01T04:11:47.296Z,1017.46
2017-09-01T04:12:47.331Z,1017.48
2017-09-01T04:13:47.367Z,1017.46
2017-09-01T04:14:47.401Z,1017.51
2017-09-01T04:15:47.432Z,1017.56
2017-09-01T04:16:47.772Z,1017.57
2017-09-01T04:17:47.799Z,1017.58
2017-09-01T04:18:47.832Z,1017.6
2017-09-01T04:19:47.866Z,1017.59
2017-09-01T04:20:47.895Z,1017.63
2017-09-01T04:21:47.927Z,1017.59
2017-09-01T04:22:48.299Z,1017.63
2017-09-01T04:23:48.325Z,1017.62
2017-09-01T04:24:48.358Z,1017.65
2017-09-01T04:25:48.696Z,1017.67
2017-09-01T04:26:48.729Z,1017.62
2017-09-01T04:27:48.765Z,1017.69
2017-09-01T04:28:48.788Z,1017.71
2017-09-01T04:29:48.820Z,1017.72
2017-09-01T04:30:48.858Z,1017.68
2017-09-01T04:31:48.885Z,1017.78
2017-09-01T04:32:48.922Z,1017.77
2017-09-01T04:33:48.954Z,1017.79
2017-09-01T04:34:48.988Z,1017.83
2017-09-01T04:35:49.020Z,1017.85
2017-09-01T04:36:49.055Z,1017.81
2017-09-01T04:37:49.085Z,1017.84
2017-09-01T04:38:49.122Z,1017.87
2017-09-01T04:39:49.155Z,1017.85
2017-09-01T04:40:49.187Z,1017.92
2017-09-01T04:41:49.215Z,1017.92
2017-09-01T04:42:49.548Z,1017.92
2017-09-01T04:43:49.577Z,1017.92
2017-09-01T04:44:49.608Z,1017.91
2017-09-01T04:45:49.642Z,1017.99
2017-09-01T04:46:49.683Z,1017.94
2017-09-01T04:47:49.708Z,1017.91
2017-09-01T04:48:50.083Z,1017.96
2017-09-01T04:49:50.108Z,1017.95
2017-09-01T04:50:50.144Z,1017.96
2017-09-01T04:51:50.174Z,1017.97
2017-09-01T04:52:50.201Z,1017.98
2017-09-01T04:53:50.239Z,1018
2017-09-01T04:54:50.272Z,1017.99
2017-09-01T04:55:50.301Z,1017.96
2017-09-01T04:56:50.337Z,1017.9
2017-09-01T04:57:50.368Z,1017.95
2017-09-01T04:58:50.402Z,1017.84
2017-09-01T04:59:50.444Z,1017.93
2017-09-01T05:00:50.471Z,1017.93
2017-09-01T05:01:50.500Z,1017.96
2017-09-01T05:02:50.537Z,1017.96
2017-09-01T05:03:50.564Z,1017.99
2017-09-01T05:04:50.946Z,1017.93
2017-09-01T05:05:50.973Z,1017.94
2017-09-01T05:06:51.007Z,1017.97
2017-09-01T05:07:51.428Z,1017.95
2017-09-01T05:08:51.360Z,1017.93
2017-09-01T05:09:51.368Z,1017.91
2017-09-01T05:10:51.406Z,1017.87
2017-09-01T05:11:51.441Z,1017.92
2017-09-01T05:12:51.473Z,1017.91
2017-09-01T05:13:51.503Z,1017.94
2017-09-01T05:14:51.533Z,1017.94
2017-09-01T05:15:51.685Z,1017.95
2017-09-01T05:16:51.706Z,1017.93
2017-09-01T05:17:51.742Z,1017.94
2017-09-01T05:18:51.777Z,1017.96
2017-09-01T05:19:51.808Z,1018
2017-09-01T05:20:51.841Z,1017.98
2017-09-01T05:21:52.200Z,1018
2017-09-01T05:22:52.240Z,1018.03
2017-09-01T05:23:52.278Z,1018.01
2017-09-01T05:24:52.306Z,1017.95
2017-09-01T05:25:52.341Z,1017.93
2017-09-01T05:26:52.376Z,1017.93
2017-09-01T05:27:52.709Z,1017.95
2017-09-01T05:28:52.738Z,1017.94
2017-09-01T05:29:53.087Z,1017.96
2017-09-01T05:30:53.111Z,1017.9
2017-09-01T05:31:53.150Z,1017.94
2017-09-01T05:32:53.181Z,1017.91
2017-09-01T05:33:53.209Z,1017.97
2017-09-01T05:34:53.582Z,1017.95
2017-09-01T05:35:53.612Z,1017.94
2017-09-01T05:36:53.647Z,1017.98
2017-09-01T05:37:53.679Z,1017.97
2017-09-01T05:38:53.711Z,1018
2017-09-01T05:39:53.766Z,1018.01
2017-09-01T05:40:53.801Z,1018.06
2017-09-01T05:41:53.832Z,1018.03
2017-09-01T05:42:53.862Z,1018.05
2017-09-01T05:43:53.938Z,1018.09
2017-09-01T05:44:53.968Z,1018.04
2017-09-01T05:45:53.993Z,1018.05
2017-09-01T05:46:54.028Z,1018.04
2017-09-01T05:47:54.059Z,1018.01
2017-09-01T05:48:54.099Z,1017.97
2017-09-01T05:49:54.125Z,1018
2017-09-01T05:50:54.512Z,1017.99
2017-09-01T05:51:54.551Z,1017.98
2017-09-01T05:52:54.589Z,1017.98
2017-09-01T05:53:54.629Z,1018.03
2017-09-01T05:54:54.662Z,1018.03
2017-09-01T05:55:54.697Z,1018.05
2017-09-01T05:56:54.728Z,1018.03
2017-09-01T05:57:54.764Z,1018.02
2017-09-01T05:58:54.800Z,1018.03
2017-09-01T05:59:54.829Z,1018.04
2017-09-01T06:00:54.864Z,1018.04
2017-09-01T06:01:54.902Z,1017.98
2017-09-01T06:02:54.931Z,1018.03
2017-09-01T06:03:54.967Z,1017.96
2017-09-01T06:04:55.004Z,1017.98
2017-09-01T06:05:55.024Z,1017.99
2017-09-01T06:06:55.068Z,1018.01
2017-09-01T06:07:55.095Z,1018.03
2017-09-01T06:08:55.468Z,1018.08
2017-09-01T06:09:55.496Z,1018.09
2017-09-01T06:10:55.527Z,1018.11
2017-09-01T06:11:55.565Z,1018.09
2017-09-01T06:12:55.601Z,1018.16
2017-09-01T06:13:55.637Z,1018.18
2017-09-01T06:14:55.668Z,1018.26
2017-09-01T06:15:55.704Z,1018.32
2017-09-01T06:16:56.083Z,1018.34
2017-09-01T06:17:56.386Z,1018.38
2017-09-01T06:18:56.420Z,1018.33
2017-09-01T06:19:56.458Z,1018.41
2017-09-01T06:20:56.497Z,1018.28
2017-09-01T06:21:56.568Z,1018.31
2017-09-01T06:22:56.600Z,1018.25
2017-09-01T06:23:56.633Z,1018.32
2017-09-01T06:24:56.666Z,1018.2
2017-09-01T06:25:57.091Z,1018.21
2017-09-01T06:26:57.122Z,1018.28
2017-09-01T06:27:57.157Z,1018.28
2017-09-01T06:28:57.520Z,1018.28
2017-09-01T06:29:57.567Z,1018.42
2017-09-01T06:30:57.696Z,1018.54
2017-09-01T06:31:57.725Z,1018.45
2017-09-01T06:32:57.770Z,1018.4
2017-09-01T06:33:57.798Z,1018.33
2017-09-01T06:34:57.831Z,1018.37
2017-09-01T06:35:57.867Z,1018.37
2017-09-01T06:36:57.908Z,1018.36
2017-09-01T06:37:57.943Z,1018.49
2017-09-01T06:38:58.293Z,1018.84
2017-09-01T06:39:58.325Z,1018.66
2017-09-01T06:40:58.666Z,1018.55
2017-09-01T06:41:58.695Z,1018.58
2017-09-01T06:42:58.730Z,1018.51
2017-09-01T06:43:58.771Z,1018.68
2017-09-01T06:44:58.802Z,1019.16
2017-09-01T06:45:58.846Z,1019.48
2017-09-01T06:46:58.883Z,1018.82
2017-09-01T06:47:58.934Z,1018.56
2017-09-01T06:48:58.951Z,1018.66
2017-09-01T06:49:58.989Z,1019.01
2017-09-01T06:50:59.026Z,1018.44
2017-09-01T06:51:59.063Z,1019.07
2017-09-01T06:52:59.099Z,1018.68
2017-09-01T06:53:59.139Z,1018.91
2017-09-01T06:54:59.489Z,1018.77
2017-09-01T06:55:59.518Z,1018.66
2017-09-01T06:56:59.680Z,1018.46
2017-09-01T06:57:59.708Z,1018.38
2017-09-01T06:59:00.018Z,1018.41
2017-09-01T07:00:00.044Z,1018.55
2017-09-01T07:01:00.091Z,1018.54
2017-09-01T07:02:00.444Z,1018.56
2017-09-01T07:03:00.476Z,1018.57
2017-09-01T07:04:00.519Z,1018.85
2017-09-01T07:05:00.554Z,1018.64
2017-09-01T07:06:00.593Z,1018.95
2017-09-01T07:07:00.624Z,1019.03
2017-09-01T07:08:00.671Z,1018.54
2017-09-01T07:09:00.721Z,1018.46
2017-09-01T07:10:00.847Z,1018.46
2017-09-01T07:11:00.827Z,1018.51
2017-09-01T07:12:01.153Z,1018.47
2017-09-01T07:13:01.185Z,1018.54
2017-09-01T07:14:01.219Z,1018.5
2017-09-01T07:15:01.255Z,1018.51
2017-09-01T07:16:01.290Z,1018.54
2017-09-01T07:17:01.330Z,1018.61
2017-09-01T07:18:01.370Z,1018.54
2017-09-01T07:19:01.401Z,1018.63
2017-09-01T07:20:01.442Z,1018.61
2017-09-01T07:21:01.479Z,1018.53
2017-09-01T07:22:01.518Z,1018.7
2017-09-01T07:23:01.868Z,1018.61
2017-09-01T07:24:01.903Z,1018.66
2017-09-01T07:25:01.937Z,1018.65
2017-09-01T07:26:01.981Z,1018.51
2017-09-01T07:27:02.019Z,1018.41
2017-09-01T07:28:02.052Z,1018.49
2017-09-01T07:29:02.093Z,1018.51
2017-09-01T07:30:02.130Z,1018.49
2017-09-01T07:31:02.164Z,1018.42
2017-09-01T07:32:02.201Z,1018.41
2017-09-01T07:33:02.247Z,1018.47
2017-09-01T07:34:02.277Z,1018.4
2017-09-01T07:35:02.326Z,1018.34
2017-09-01T07:36:02.354Z,1018.32
2017-09-01T07:37:02.396Z,1018.34
2017-09-01T07:38:02.442Z,1018.31
2017-09-01T07:39:02.467Z,1018.37
2017-09-01T07:40:02.508Z,1018.34
2017-09-01T07:41:02.545Z,1018.36
2017-09-01T07:42:02.586Z,1018.35
2017-09-01T07:43:02.625Z,1018.38
2017-09-01T07:44:02.671Z,1018.4
2017-09-01T07:45:02.704Z,1018.37
2017-09-01T07:46:02.762Z,1018.4
2017-09-01T07:47:02.783Z,1018.42
2017-09-01T07:48:02.819Z,1018.4
2017-09-01T07:49:02.856Z,1018.39
2017-09-01T07:50:03.205Z,1018.39
2017-09-01T07:51:03.236Z,1018.38
2017-09-01T07:52:03.270Z,1018.41
2017-09-01T07:53:03.313Z,1018.44
2017-09-01T07:54:03.350Z,1018.44
2017-09-01T07:55:03.383Z,1018.37
2017-09-01T07:56:03.733Z,1018.41
2017-09-01T07:57:03.763Z,1018.33
2017-09-01T07:58:03.810Z,1018.31
2017-09-01T07:59:03.840Z,1018.28
2017-09-01T08:00:03.878Z,1018.29
2017-09-01T08:01:04.416Z,1018.27
2017-09-01T08:02:04.402Z,1018.3
2017-09-01T08:03:04.491Z,1018.32
2017-09-01T08:04:04.595Z,1018.29
2017-09-01T08:05:04.788Z,1018.34
2017-09-01T08:06:04.736Z,1018.33
2017-09-01T08:07:04.769Z,1018.33
2017-09-01T08:08:04.811Z,1018.4
2017-09-01T08:09:04.846Z,1018.41
2017-09-01T08:10:04.958Z,1018.48
2017-09-01T08:11:04.923Z,1018.41
2017-09-01T08:12:04.957Z,1018.45
2017-09-01T08:13:05.003Z,1018.46
2017-09-01T08:14:05.040Z,1018.43
2017-09-01T08:15:05.118Z,1018.42
2017-09-01T08:16:05.113Z,1018.4
2017-09-01T08:17:05.157Z,1018.36
2017-09-01T08:18:05.192Z,1018.42
2017-09-01T08:19:05.231Z,1018.41
2017-09-01T08:20:05.341Z,1018.41
2017-09-01T08:21:05.311Z,1018.44
2017-09-01T08:22:05.649Z,1018.41
2017-09-01T08:23:05.680Z,1018.39
2017-09-01T08:24:06.060Z,1018.34
2017-09-01T08:25:06.242Z,1018.3
2017-09-01T08:26:06.139Z,1018.35
2017-09-01T08:27:06.180Z,1018.36
2017-09-01T08:28:06.212Z,1018.39
2017-09-01T08:29:06.258Z,1018.36
2017-09-01T08:30:06.298Z,1018.38
2017-09-01T08:31:06.361Z,1018.35
2017-09-01T08:32:06.388Z,1018.42
2017-09-01T08:33:06.420Z,1018.35
2017-09-01T08:34:06.461Z,1018.35
2017-09-01T08:35:06.493Z,1018.37
2017-09-01T08:36:06.970Z,1018.29
2017-09-01T08:37:07.009Z,1018.3
2017-09-01T08:38:07.049Z,1018.31
2017-09-01T08:39:07.085Z,1018.33
2017-09-01T08:40:07.130Z,1018.33
2017-09-01T08:41:07.167Z,1018.36
2017-09-01T08:42:07.208Z,1018.44
2017-09-01T08:43:07.283Z,1018.43
2017-09-01T08:44:07.312Z,1018.47
2017-09-01T08:45:07.342Z,1018.47
2017-09-01T08:46:07.373Z,1018.5
2017-09-01T08:47:07.409Z,1018.64
2017-09-01T08:48:07.447Z,1018.5
2017-09-01T08:49:07.494Z,1018.64
2017-09-01T08:50:07.530Z,1018.56
2017-09-01T08:51:07.564Z,1018.48
2017-09-01T08:52:07.675Z,1018.36
2017-09-01T08:53:07.794Z,1018.29
2017-09-01T08:54:07.839Z,1018.3
2017-09-01T08:55:07.870Z,1018.23
2017-09-01T08:56:07.915Z,1018.16
2017-09-01T08:57:07.960Z,1018.19
2017-09-01T08:58:08.104Z,1018.14
2017-09-01T08:59:08.155Z,1018.09
2017-09-01T09:00:08.187Z,1018.07
2017-09-01T09:01:08.227Z,1018.05
2017-09-01T09:02:08.578Z,1018.01
2017-09-01T09:03:08.616Z,1017.96
2017-09-01T09:04:08.657Z,1017.97
2017-09-01T09:05:09.043Z,1017.92
2017-09-01T09:06:09.077Z,1017.92
2017-09-01T09:07:09.124Z,1017.93
2017-09-01T09:08:09.161Z,1017.95
2017-09-01T09:09:09.201Z,1017.94
2017-09-01T09:10:09.242Z,1017.96
2017-09-01T09:11:09.282Z,1017.96
2017-09-01T09:12:09.323Z,1018.02
2017-09-01T09:13:09.363Z,1017.98
2017-09-01T09:14:09.423Z,1018
2017-09-01T09:15:09.440Z,1017.94
2017-09-01T09:16:09.483Z,1017.95
2017-09-01T09:17:09.858Z,1017.92
2017-09-01T09:18:09.885Z,1017.95
2017-09-01T09:19:09.928Z,1017.95
2017-09-01T09:20:09.967Z,1017.95
2017-09-01T09:21:10.006Z,1017.91
2017-09-01T09:22:10.044Z,1017.92
2017-09-01T09:23:10.085Z,1017.92
2017-09-01T09:24:10.439Z,1017.93
2017-09-01T09:25:10.475Z,1017.96
2017-09-01T09:26:10.513Z,1017.97
2017-09-01T09:27:10.559Z,1017.98
2017-09-01T09:28:10.659Z,1018.01
2017-09-01T09:29:10.672Z,1018.04
2017-09-01T09:30:10.714Z,1018.04
2017-09-01T09:31:11.072Z,1018.08
2017-09-01T09:32:11.437Z,1018.12
2017-09-01T09:33:11.476Z,1018.11
2017-09-01T09:34:11.526Z,1018.12
2017-09-01T09:35:11.558Z,1018.16
2017-09-01T09:36:11.597Z,1018.15
2017-09-01T09:37:12.007Z,1018.23
2017-09-01T09:38:12.043Z,1018.22
2017-09-01T09:39:12.432Z,1018.16
2017-09-01T09:40:12.472Z,1018.12
2017-09-01T09:41:12.514Z,1018.13
2017-09-01T09:42:12.552Z,1018.16
2017-09-01T09:43:12.573Z,1018.16
2017-09-01T09:44:12.627Z,1018.19
2017-09-01T09:45:12.673Z,1018.18
2017-09-01T09:46:12.706Z,1018.19
2017-09-01T09:47:12.747Z,1018.12
2017-09-01T09:48:12.785Z,1018.17
2017-09-01T09:49:12.828Z,1018.22
2017-09-01T09:50:12.868Z,1018.26
2017-09-01T09:51:12.905Z,1018.13
2017-09-01T09:52:12.945Z,1018.4
2017-09-01T09:53:13.302Z,1018.16
2017-09-01T09:54:13.345Z,1018.34
2017-09-01T09:55:13.384Z,1018.25
2017-09-01T09:56:13.418Z,1018.22
2017-09-01T09:57:13.462Z,1018.2
2017-09-01T09:58:13.501Z,1018.31
2017-09-01T09:59:13.816Z,1018.46
2017-09-01T10:00:13.850Z,1018.44
2017-09-01T10:01:14.207Z,1018.16
2017-09-01T10:02:14.243Z,1018.06
2017-09-01T10:03:14.285Z,1018.12
2017-09-01T10:04:14.320Z,1018.11
2017-09-01T10:05:14.364Z,1018.05
2017-09-01T10:06:14.403Z,1017.94
2017-09-01T10:07:14.754Z,1017.91
2017-09-01T10:08:15.155Z,1017.91
2017-09-01T10:09:15.184Z,1017.98
2017-09-01T10:10:15.540Z,1017.92
2017-09-01T10:11:15.572Z,1017.88
2017-09-01T10:12:15.613Z,1017.92
2017-09-01T10:13:15.655Z,1017.86
2017-09-01T10:14:15.721Z,1017.91
2017-09-01T10:15:16.062Z,1017.85
2017-09-01T10:16:15.812Z,1017.81
2017-09-01T10:17:15.843Z,1017.79
2017-09-01T10:18:15.880Z,1017.8
2017-09-01T10:19:15.922Z,1017.74
2017-09-01T10:20:15.960Z,1017.77
2017-09-01T10:21:15.998Z,1017.78
2017-09-01T10:22:16.062Z,1017.8
2017-09-01T10:23:16.100Z,1017.8
2017-09-01T10:24:16.137Z,1017.82
2017-09-01T10:25:16.176Z,1017.78
2017-09-01T10:26:16.224Z,1017.72
2017-09-01T10:27:16.592Z,1017.68
2017-09-01T10:28:16.929Z,1017.67
2017-09-01T10:29:16.958Z,1017.7
2017-09-01T10:30:17.289Z,1017.66
2017-09-01T10:31:17.322Z,1017.69
2017-09-01T10:32:17.363Z,1017.73
2017-09-01T10:33:17.400Z,1017.76
2017-09-01T10:34:17.749Z,1017.74
2017-09-01T10:35:17.781Z,1017.77
2017-09-01T10:36:18.236Z,1017.79
2017-09-01T10:37:18.271Z,1017.75
2017-09-01T10:38:18.611Z,1017.74
2017-09-01T10:39:18.639Z,1017.75
2017-09-01T10:40:18.680Z,1017.75
2017-09-01T10:41:18.715Z,1017.72
2017-09-01T10:42:18.760Z,1017.72
2017-09-01T10:43:18.792Z,1017.74
2017-09-01T10:44:19.175Z,1017.72
2017-09-01T10:45:19.212Z,1017.7
2017-09-01T10:46:19.244Z,1017.67
2017-09-01T10:47:19.283Z,1017.68
2017-09-01T10:48:19.321Z,1017.72
2017-09-01T10:49:19.359Z,1017.7
2017-09-01T10:50:19.720Z,1017.73
2017-09-01T10:51:19.755Z,1017.72
2017-09-01T10:52:20.090Z,1017.76
2017-09-01T10:53:20.117Z,1017.78
2017-09-01T10:54:20.156Z,1017.84
2017-09-01T10:55:20.196Z,1017.8
2017-09-01T10:56:20.233Z,1017.77
2017-09-01T10:57:20.269Z,1017.74
2017-09-01T10:58:20.305Z,1017.74
2017-09-01T10:59:20.341Z,1017.76
2017-09-01T11:00:20.380Z,1017.77
2017-09-01T11:01:20.763Z,1017.73
2017-09-01T11:02:21.104Z,1017.69
2017-09-01T11:03:21.141Z,1017.7
2017-09-01T11:04:21.177Z,1017.71
2017-09-01T11:05:21.217Z,1017.74
2017-09-01T11:06:21.255Z,1017.79
2017-09-01T11:07:21.276Z,1017.72
2017-09-01T11:08:21.327Z,1017.73
2017-09-01T11:09:21.716Z,1017.78
2017-09-01T11:10:21.745Z,1017.74
2017-09-01T11:11:21.785Z,1017.72
2017-09-01T11:12:21.828Z,1017.73
2017-09-01T11:13:21.867Z,1017.76
2017-09-01T11:14:22.226Z,1017.74
2017-09-01T11:15:22.255Z,1017.71
2017-09-01T11:16:22.296Z,1017.73
2017-09-01T11:17:22.317Z,1017.72
2017-09-01T11:18:22.369Z,1017.69
2017-09-01T11:19:22.716Z,1017.72
2017-09-01T11:20:22.740Z,1017.7
2017-09-01T11:21:23.083Z,1017.69
2017-09-01T11:22:23.109Z,1017.7
2017-09-01T11:23:23.153Z,1017.68
2017-09-01T11:24:23.189Z,1017.69
2017-09-01T11:25:23.221Z,1017.69
2017-09-01T11:26:23.558Z,1017.72
2017-09-01T11:27:23.592Z,1017.67
2017-09-01T11:28:23.626Z,1017.65
2017-09-01T11:29:23.664Z,1017.69
2017-09-01T11:30:23.700Z,1017.68
2017-09-01T11:31:23.735Z,1017.7
2017-09-01T11:32:23.771Z,1017.64
2017-09-01T11:33:23.810Z,1017.64
2017-09-01T11:34:23.849Z,1017.67
2017-09-01T11:35:23.884Z,1017.63
2017-09-01T11:36:24.191Z,1017.62
2017-09-01T11:37:24.218Z,1017.57
2017-09-01T11:38:24.260Z,1017.61
2017-09-01T11:39:24.294Z,1017.61
2017-09-01T11:40:24.483Z,1017.57
2017-09-01T11:41:24.852Z,1017.55
2017-09-01T11:42:24.881Z,1017.56
2017-09-01T11:43:24.924Z,1017.56
2017-09-01T11:44:24.996Z,1017.63
2017-09-01T11:45:25.034Z,1017.62
2017-09-01T11:46:25.421Z,1017.64
2017-09-01T11:47:25.448Z,1017.66
2017-09-01T11:48:25.511Z,1017.57
2017-09-01T11:49:25.553Z,1017.6
2017-09-01T11:50:25.906Z,1017.6
2017-09-01T11:51:25.935Z,1017.59
2017-09-01T11:52:25.975Z,1017.58
2017-09-01T11:53:26.359Z,1017.6
2017-09-01T11:54:26.381Z,1017.6
2017-09-01T11:55:26.419Z,1017.61
2017-09-01T11:56:26.461Z,1017.61
2017-09-01T11:57:26.491Z,1017.66
2017-09-01T11:58:26.512Z,1017.64
2017-09-01T11:59:26.577Z,1017.62
2017-09-01T12:00:26.599Z,1017.63
2017-09-01T12:01:26.637Z,1017.58
2017-09-01T12:02:26.680Z,1017.56
2017-09-01T12:03:26.711Z,1017.57
2017-09-01T12:04:26.747Z,1017.55
2017-09-01T12:05:26.785Z,1017.58
2017-09-01T12:06:26.826Z,1017.56
2017-09-01T12:07:26.867Z,1017.53
2017-09-01T12:08:26.894Z,1017.58
2017-09-01T12:09:26.927Z,1017.6